Météo Nord-Pas-de-Calais   La météo au plus près de chez vous

Station météorologique

Observations météo à Pointe Des Trois-Bassins (97415)

97415590 5 m Dernier relevé à 11:18
26.1°C
Humidité 60 % Vent 10.1 km/h

Journée consultée

Mercredi 2 Septembre 2026

Synthèse de la journée

Périodes de référence en UTC

Température maximale

27.7°C

à 09:18

06h 06h

Température minimale

20.6°C

à 01:36

18h 18h

Rafale maximale

18 km/h

à 10:36

00h 00h

Précipitations

0 mm

Cumul quotidien

06h 06h

Ensoleillement

5h 19 mins

Durée quotidienne

00h 00h

Graphiques de la journée

Heure locale Réduire

Données détaillées

Relevés météo

Pas de 6 minutes Afficher les relevés infra-horaires
Relevés météo détaillés à Pointe Des Trois-Bassins pour le Mercredi 2 Septembre 2026
Heure Température °C Point de rosée °C Humidité % Vent moyen (raf.), km/h Précipitations mm Ensoleillement min Rayonnement global W/m²
11:18 26.1 °C 18 °C 61 % 9 km/h (13 km/h) 0 mm0 mm 0 min 146 W/m²
11:12 26 °C 17.6 °C 60 % 11 km/h (14 km/h) 0 mm0 mm 2 min 188.3 W/m²
11:06 26 °C 18.7 °C 64 % 13 km/h (18 km/h) 0 mm0 mm 3 min 264.6 W/m²
11:00 25.6 °C 17.8 °C 62 % 14 km/h (18 km/h) 0 mm0 mm 1 min 176.9 W/m²
10:54 26.2 °C 18.1 °C 61 % 13 km/h (17 km/h) 0 mm0 mm 3 min 273.6 W/m²
10:48 26.5 °C 17.8 °C 59 % 12 km/h (15 km/h) 0 mm0 mm 6 min 360.4 W/m²
10:42 26.7 °C 18 °C 59 % 12 km/h (18 km/h) 0 mm0 mm 6 min 343.9 W/m²
10:36 26.7 °C 18.3 °C 60 % 12 km/h (18 km/h) 0 mm0 mm 6 min 333 W/m²
10:30 26.4 °C 18 °C 60 % 10 km/h (15 km/h) 0 mm0 mm 6 min 325.9 W/m²
10:24 26.9 °C 18.5 °C 60 % 10 km/h (14 km/h) 0 mm0 mm 6 min 327.3 W/m²
10:18 27 °C 18.6 °C 60 % 10 km/h (14 km/h) 0 mm0 mm 6 min 331.3 W/m²
10:12 26.6 °C 18.5 °C 61 % 10 km/h (13 km/h) 0 mm0 mm 6 min 333.8 W/m²
10:06 26.8 °C 18.4 °C 60 % 9 km/h (12 km/h) 0 mm0 mm 6 min 329.7 W/m²
10:00 26.9 °C 18.5 °C 60 % 9 km/h (12 km/h) 0 mm0 mm 6 min 333.7 W/m²
09:54 27.3 °C 18 °C 57 % 8 km/h (12 km/h) 0 mm0 mm 6 min 337.8 W/m²
09:48 27.3 °C 18.3 °C 58 % 8 km/h (12 km/h) 0 mm0 mm 6 min 328 W/m²
09:42 27.2 °C 17.9 °C 57 % 8 km/h (12 km/h) 0 mm0 mm 6 min 329 W/m²
09:36 27.3 °C 18 °C 57 % 8 km/h (12 km/h) 0 mm0 mm 6 min 336.1 W/m²
09:30 27.2 °C 19 °C 61 % 8 km/h (12 km/h) 0 mm0 mm 6 min 327.7 W/m²
09:24 27.4 °C 18.1 °C 57 % 6 km/h (9 km/h) 0 mm0 mm 6 min 320.6 W/m²
09:18 27.7 °C 19 °C 59 % 6 km/h (12 km/h) 0 mm0 mm 6 min 310.4 W/m²
09:12 27.5 °C 18.5 °C 58 % 7 km/h (12 km/h) 0 mm0 mm 6 min 316.2 W/m²
09:06 27.1 °C 18.4 °C 59 % 6 km/h (10 km/h) 0 mm0 mm 6 min 314.4 W/m²
09:00 27.4 °C 18.4 °C 58 % 5 km/h (9 km/h) 0 mm0 mm 6 min 304.6 W/m²
08:54 27 °C 18.3 °C 59 % 6 km/h (10 km/h) 0 mm0 mm 6 min 298.6 W/m²
08:48 26.7 °C 18 °C 59 % 6 km/h (10 km/h) 0 mm0 mm 6 min 292.7 W/m²
08:42 27.1 °C 18.1 °C 58 % 6 km/h (9 km/h) 0 mm0 mm 6 min 287.5 W/m²
08:36 26.9 °C 17.7 °C 57 % 6 km/h (8 km/h) 0 mm0 mm 6 min 283.3 W/m²
08:30 26.7 °C 17.5 °C 57 % 6 km/h (9 km/h) 0 mm0 mm 6 min 278.2 W/m²
08:24 26.6 °C 17.7 °C 58 % 6 km/h (10 km/h) 0 mm0 mm 6 min 273.2 W/m²
08:18 26.6 °C 18.2 °C 60 % 7 km/h (10 km/h) 0 mm0 mm 6 min 267.7 W/m²
08:12 26.5 °C 17.8 °C 59 % 7 km/h (9 km/h) 0 mm0 mm 6 min 263 W/m²
08:06 26.4 °C 18.3 °C 61 % 6 km/h (9 km/h) 0 mm0 mm 6 min 257 W/m²
08:00 26.1 °C 18 °C 61 % 6 km/h (9 km/h) 0 mm0 mm 6 min 251.3 W/m²
07:54 26.2 °C 17.8 °C 60 % 6 km/h (9 km/h) 0 mm0 mm 6 min 245.4 W/m²
07:48 26.4 °C 17.5 °C 58 % 4 km/h (8 km/h) 0 mm0 mm 6 min 238.7 W/m²
07:42 26.7 °C 16.9 °C 55 % 4 km/h (6 km/h) 0 mm0 mm 6 min 232.5 W/m²
07:36 26.6 °C 17.1 °C 56 % 3 km/h (6 km/h) 0 mm0 mm 6 min 225.5 W/m²
07:30 26.7 °C 16.6 °C 54 % 3 km/h (6 km/h) 0 mm0 mm 6 min 218.3 W/m²
07:24 26.6 °C 17.1 °C 56 % 4 km/h (6 km/h) 0 mm0 mm 6 min 211.9 W/m²
07:18 26.5 °C 16.7 °C 55 % 4 km/h (6 km/h) 0 mm0 mm 6 min 205.3 W/m²
07:12 26.7 °C 16.9 °C 55 % 3 km/h (6 km/h) 0 mm0 mm 6 min 200 W/m²
07:06 26.8 °C 17 °C 55 % 3 km/h (4 km/h) 0 mm0 mm 6 min 196.9 W/m²
07:00 26.5 °C 16.7 °C 55 % 3 km/h (4 km/h) 0 mm0 mm 6 min 177.8 W/m²
06:54 26.7 °C 16.6 °C 54 % 3 km/h (4 km/h) 0 mm0 mm 6 min 156.4 W/m²
06:48 26.5 °C 16.7 °C 55 % 2 km/h (4 km/h) 0 mm0 mm 6 min 151.5 W/m²
06:42 26.3 °C 16.5 °C 55 % 2 km/h (5 km/h) 0 mm0 mm 6 min 146.1 W/m²
06:36 25.9 °C 16.7 °C 57 % 2 km/h (5 km/h) 0 mm0 mm 6 min 125.4 W/m²
06:30 25.9 °C 16.2 °C 55 % 2 km/h (5 km/h) 0 mm0 mm 6 min 135.6 W/m²
06:24 25.7 °C 16.3 °C 56 % 3 km/h (6 km/h) 0 mm0 mm 1 min 71.8 W/m²
06:18 25.8 °C 16.6 °C 57 % 5 km/h (9 km/h) 0 mm0 mm 0 min 47.3 W/m²
06:12 25.7 °C 16.5 °C 57 % 6 km/h (9 km/h) 0 mm0 mm 1 min 45.5 W/m²
06:06 25.7 °C 16.8 °C 58 % 5 km/h (9 km/h) 0 mm0 mm 6 min 109.5 W/m²
06:00 25.6 °C 15.6 °C 54 % 3 km/h (7 km/h) 0 mm0 mm 6 min 126.4 W/m²
05:54 25.2 °C 14.9 °C 53 % 3 km/h (8 km/h) 0 mm0 mm 6 min 110.9 W/m²
05:48 24.6 °C 14.4 °C 53 % 4 km/h (8 km/h) 0 mm0 mm 6 min 103.1 W/m²
05:42 24.3 °C 14.1 °C 53 % 4 km/h (8 km/h) 0 mm0 mm 6 min 87.6 W/m²
05:36 23.7 °C 14.1 °C 55 % 3 km/h (8 km/h) 0 mm0 mm 6 min 77 W/m²
05:30 22.8 °C 13.8 °C 57 % 4 km/h (8 km/h) 0 mm0 mm 6 min 72.4 W/m²
05:24 22.1 °C 13.7 °C 59 % 5 km/h (9 km/h) 0 mm0 mm 2 min 30.7 W/m²
05:18 21.8 °C 13.7 °C 60 % 5 km/h (9 km/h) 0 mm0 mm 0 min 13.9 W/m²
05:12 21.8 °C 13.4 °C 59 % 6 km/h (10 km/h) 0 mm0 mm 0 min 11.4 W/m²
05:06 21.7 °C 13.3 °C 59 % 6 km/h (10 km/h) 0 mm0 mm 0 min 12.5 W/m²
05:00 21.5 °C 13.1 °C 59 % 5 km/h (9 km/h) 0 mm0 mm 0 min 11.8 W/m²
04:54 21.3 °C 13 °C 59 % 4 km/h (8 km/h) 0 mm0 mm 0 min 8.7 W/m²
04:48 21.2 °C 12.9 °C 59 % 5 km/h (9 km/h) 0 mm0 mm 0 min 5.8 W/m²
04:42 21.1 °C 12.8 °C 59 % 5 km/h (9 km/h) 0 mm0 mm 0 min 1.9 W/m²
04:36 21.2 °C 12.6 °C 58 % 5 km/h (9 km/h) 0 mm0 mm 0 min 0 W/m²
04:30 21.3 °C 12.7 °C 58 % 5 km/h (9 km/h) 0 mm0 mm 0 min 0 W/m²
04:24 21.3 °C 12.7 °C 58 % 6 km/h (10 km/h) 0 mm0 mm 0 min 0 W/m²
04:18 21.3 °C 12.7 °C 58 % 6 km/h (10 km/h) 0 mm0 mm 0 min 0 W/m²
04:12 21.3 °C 13 °C 59 % 4 km/h (9 km/h) 0 mm0 mm 0 min 0 W/m²
04:06 21.3 °C 13 °C 59 % 3 km/h (6 km/h) 0 mm0 mm 0 min 0 W/m²
04:00 21.3 °C 13 °C 59 % 4 km/h (8 km/h) 0 mm0 mm 0 min 0 W/m²
03:54 21.3 °C 13 °C 59 % 4 km/h (8 km/h) 0 mm0 mm 0 min 0 W/m²
03:48 21.1 °C 12.8 °C 59 % 4 km/h (7 km/h) 0 mm0 mm 0 min 0 W/m²
03:42 21 °C 12.7 °C 59 % 4 km/h (7 km/h) 0 mm0 mm 0 min 0 W/m²
03:36 20.9 °C 12.6 °C 59 % 4 km/h (6 km/h) 0 mm0 mm 0 min 0 W/m²
03:30 21 °C 12.4 °C 58 % 4 km/h (6 km/h) 0 mm0 mm 0 min 0 W/m²
03:24 20.9 °C 12.3 °C 58 % 4 km/h (6 km/h) 0 mm0 mm 0 min 0 W/m²
03:18 20.8 °C 12 °C 57 % 3 km/h (6 km/h) 0 mm0 mm 0 min 0 W/m²
03:12 21 °C 12.2 °C 57 % 4 km/h (7 km/h) 0 mm0 mm 0 min 0 W/m²
03:06 21 °C 11.9 °C 56 % 3 km/h (6 km/h) 0 mm0 mm 0 min 0 W/m²
03:00 21 °C 11.9 °C 56 % 4 km/h (9 km/h) 0 mm0 mm 0 min 0 W/m²
02:54 21.2 °C 12.1 °C 56 % 6 km/h (12 km/h) 0 mm0 mm 0 min 0 W/m²
02:48 21 °C 12.9 °C 60 % 4 km/h (12 km/h) 0 mm0 mm 0 min 0 W/m²
02:42 21 °C 13.4 °C 62 % 3 km/h (8 km/h) 0 mm0 mm 0 min 0 W/m²
02:36 20.9 °C 12.8 °C 60 % 3 km/h (8 km/h) 0 mm0 mm 0 min 0 W/m²
02:30 21 °C 12.4 °C 58 % 4 km/h (12 km/h) 0 mm0 mm 0 min 0 W/m²
02:24 21.1 °C 12.2 °C 57 % 6 km/h (12 km/h) 0 mm0 mm 0 min 0 W/m²
02:18 21.1 °C 12.2 °C 57 % 6 km/h (12 km/h) 0 mm0 mm 0 min 0 W/m²
02:12 21 °C 12.4 °C 58 % 5 km/h (10 km/h) 0 mm0 mm 0 min 0 W/m²
02:06 21 °C 12.4 °C 58 % 5 km/h (10 km/h) 0 mm0 mm 0 min 0 W/m²
02:00 21 °C 12.4 °C 58 % 5 km/h (12 km/h) 0 mm0 mm 0 min 0 W/m²
01:54 20.9 °C 12.6 °C 59 % 5 km/h (13 km/h) 0 mm0 mm 0 min 0 W/m²
01:48 20.7 °C 12.9 °C 61 % 5 km/h (12 km/h) 0 mm0 mm 0 min 0 W/m²
01:42 20.7 °C 12.7 °C 60 % 5 km/h (9 km/h) 0 mm0 mm 0 min 0 W/m²
01:36 20.6 °C 12.8 °C 61 % 4 km/h (9 km/h) 0 mm0 mm 0 min 0 W/m²
01:30 20.7 °C 12.9 °C 61 % 3 km/h (10 km/h) 0 mm0 mm 0 min 0 W/m²
01:24 20.9 °C 13.3 °C 62 % 3 km/h (8 km/h) 0 mm0 mm 0 min 0 W/m²
01:18 21.1 °C 14 °C 64 % 3 km/h (9 km/h) 0 mm0 mm 0 min 0 W/m²
01:12 20.9 °C 13.3 °C 62 % 3 km/h (8 km/h) 0 mm0 mm 0 min 0 W/m²
01:06 21.1 °C 13.3 °C 61 % 4 km/h (10 km/h) 0 mm0 mm 0 min 0 W/m²
01:00 21.3 °C 13.2 °C 60 % 5 km/h (10 km/h) 0 mm0 mm 0 min 0 W/m²
00:54 21.3 °C 13 °C 59 % 6 km/h (13 km/h) 0 mm0 mm 0 min 0 W/m²
00:48 21.2 °C 13.1 °C 60 % 6 km/h (13 km/h) 0 mm0 mm 0 min 0 W/m²
00:42 21.1 °C 12.8 °C 59 % 6 km/h (13 km/h) 0 mm0 mm 0 min 0 W/m²
00:36 21.1 °C 12.8 °C 59 % 6 km/h (11 km/h) 0 mm0 mm 0 min 0 W/m²
00:30 21.1 °C 12.8 °C 59 % 6 km/h (12 km/h) 0 mm0 mm 0 min 0 W/m²
00:24 21.1 °C 13.3 °C 61 % 6 km/h (13 km/h) 0 mm0 mm 0 min 0 W/m²
00:18 21.1 °C 13.5 °C 62 % 8 km/h (14 km/h) 0 mm0 mm 0 min 0 W/m²
00:12 21.1 °C 14 °C 64 % 7 km/h (14 km/h) 0 mm0 mm 0 min 0 W/m²
00:06 21.1 °C 14.5 °C 66 % 6 km/h (13 km/h) 0 mm0 mm 0 min 0 W/m²
00:00 21.1 °C 14.5 °C 66 % 8 km/h (14 km/h) 0 mm0 mm 0 min 0 W/m²

Données via Météo-France

Relevés météo à Pointe Des Trois-Bassins

Cette page rassemble les observations de la station de Pointe Des Trois-Bassins : température, humidité, vent, précipitations et pression atmosphérique. Les graphiques facilitent le suivi de la journée, tandis que le tableau donne accès aux mesures horaires et infra-horaires disponibles.

Pour replacer ces mesures dans leur contexte, consultez la climatologie de Pointe Des Trois-Bassins ainsi que ses normales et records. Retrouvez aussi la carte des observations météo en temps réel.